Pitkin, Louisiana
Current Conditions -  °F | °C
As of 5:54 AM on Thursday 18 Dec 2014 (Local Time) from KBKB Reporting Station
Overcast Overcast  
Wind Chill: 53°   Ceiling: 1800
Heat Index: 53°   Visibility: 10mi
Dew Point: 44°   Wind: 0mph
Humidity: 71%   Direction: NA
Pressure: 30.09"   Gusts: NA
Location:  30.94°N, 92.94°W
Report Text: KBKB 181154Z AUTO 00000KT 10SM OVC018 12/07 A3009 RMK AO2 SLP218 7//// T01170067 10117 20106 56008 $
Loading
Personal Weather Stations






























Interactive Weather Map New forecast layout! Learn more

10-Day Weather Forecast

Advertisements
Track Severe Weather on mobile